createdAt,value
2018-09-03T00:00:59.519Z,0
2018-09-03T00:02:00.080Z,0
2018-09-03T00:03:00.642Z,0
2018-09-03T00:04:01.187Z,0
2018-09-03T00:05:01.753Z,0
2018-09-03T00:06:02.294Z,0
2018-09-03T00:07:02.847Z,0
2018-09-03T00:08:03.407Z,0
2018-09-03T00:09:03.957Z,0
2018-09-03T00:10:04.513Z,0
2018-09-03T00:11:05.087Z,0
2018-09-03T00:12:05.609Z,0
2018-09-03T00:13:06.170Z,0
2018-09-03T00:14:06.718Z,0
2018-09-03T00:15:07.266Z,0
2018-09-03T00:17:09.377Z,0
2018-09-03T00:18:09.941Z,0
2018-09-03T00:19:10.495Z,0
2018-09-03T00:20:11.051Z,0
2018-09-03T00:21:11.602Z,0
2018-09-03T00:22:12.155Z,0
2018-09-03T00:23:12.710Z,0
2018-09-03T00:24:13.264Z,0
2018-09-03T00:25:13.821Z,0
2018-09-03T00:26:14.391Z,0
2018-09-03T00:27:14.926Z,0
2018-09-03T00:28:15.470Z,0
2018-09-03T00:29:16.025Z,0
2018-09-03T00:30:16.570Z,0
2018-09-03T00:31:17.129Z,0
2018-09-03T00:32:17.691Z,0
2018-09-03T00:33:18.240Z,0
2018-09-03T00:34:18.792Z,0
2018-09-03T00:35:19.339Z,0
2018-09-03T00:36:19.892Z,0
2018-09-03T00:37:20.443Z,0
2018-09-03T00:38:20.992Z,0
2018-09-03T00:39:21.542Z,0
2018-09-03T00:40:22.092Z,0
2018-09-03T00:41:22.649Z,0
2018-09-03T00:42:23.203Z,0
2018-09-03T00:43:23.744Z,0
2018-09-03T00:44:24.291Z,0
2018-09-03T00:45:24.836Z,0
2018-09-03T00:46:25.390Z,0
2018-09-03T00:47:25.947Z,0
2018-09-03T00:48:26.492Z,0
2018-09-03T00:49:27.048Z,0
2018-09-03T00:50:27.593Z,0
2018-09-03T00:51:28.149Z,0
2018-09-03T00:52:28.702Z,0
2018-09-03T00:53:29.267Z,0
2018-09-03T00:54:29.809Z,0
2018-09-03T00:55:30.366Z,0
2018-09-03T00:56:30.919Z,0
2018-09-03T00:57:31.469Z,0
2018-09-03T00:58:32.024Z,0
2018-09-03T00:59:32.576Z,0
2018-09-03T01:00:33.117Z,0
2018-09-03T01:01:33.673Z,0
2018-09-03T01:02:34.233Z,0
2018-09-03T01:03:34.787Z,0
2018-09-03T01:04:35.339Z,0
2018-09-03T01:05:35.885Z,0
2018-09-03T01:06:36.442Z,0
2018-09-03T01:07:36.994Z,0
2018-09-03T01:08:37.539Z,0
2018-09-03T01:09:38.093Z,0
2018-09-03T01:10:38.641Z,0
2018-09-03T01:11:39.197Z,0
2018-09-03T01:12:39.751Z,0
2018-09-03T01:13:40.303Z,0
2018-09-03T01:14:40.860Z,0
2018-09-03T01:15:41.425Z,0
2018-09-03T01:16:41.979Z,0
2018-09-03T01:17:42.531Z,0
2018-09-03T01:18:43.085Z,0
2018-09-03T01:19:43.633Z,0
2018-09-03T01:20:44.180Z,0
2018-09-03T01:21:44.731Z,0
2018-09-03T01:22:45.289Z,0
2018-09-03T01:23:45.840Z,0
2018-09-03T01:24:46.398Z,0
2018-09-03T01:25:46.948Z,0
2018-09-03T01:26:47.511Z,0
2018-09-03T01:27:48.060Z,0
2018-09-03T01:28:48.617Z,0
2018-09-03T01:29:49.169Z,0
2018-09-03T01:30:49.725Z,0
2018-09-03T01:31:50.276Z,0
2018-09-03T01:32:50.830Z,0
2018-09-03T01:33:51.384Z,0
2018-09-03T01:34:51.935Z,0
2018-09-03T01:35:52.482Z,0
2018-09-03T01:36:53.029Z,0
2018-09-03T01:37:53.586Z,0
2018-09-03T01:38:54.131Z,0
2018-09-03T01:39:54.683Z,0
2018-09-03T01:40:55.232Z,0
2018-09-03T01:41:55.783Z,0
2018-09-03T01:42:56.333Z,0
2018-09-03T01:43:56.887Z,0
2018-09-03T01:44:57.437Z,0
2018-09-03T01:45:57.986Z,0
2018-09-03T01:46:58.539Z,0
2018-09-03T01:47:59.095Z,0
2018-09-03T01:48:59.652Z,0
2018-09-03T01:50:00.205Z,0
2018-09-03T01:51:00.757Z,0
2018-09-03T01:52:01.305Z,0
2018-09-03T01:53:01.865Z,0
2018-09-03T01:54:02.444Z,0
2018-09-03T01:55:03.002Z,0
2018-09-03T01:56:03.558Z,0
2018-09-03T01:57:04.104Z,0
2018-09-03T01:58:04.653Z,0
2018-09-03T01:59:05.209Z,0
2018-09-03T02:00:05.757Z,0
2018-09-03T02:01:06.313Z,0
2018-09-03T02:02:06.860Z,0
2018-09-03T02:03:07.412Z,0
2018-09-03T02:04:07.965Z,0
2018-09-03T02:05:08.526Z,0
2018-09-03T02:06:09.077Z,0
2018-09-03T02:07:09.631Z,0
2018-09-03T02:08:10.185Z,0
2018-09-03T02:09:10.739Z,0
2018-09-03T02:10:11.296Z,0
2018-09-03T02:11:11.849Z,0
2018-09-03T02:12:12.404Z,0
2018-09-03T02:13:12.957Z,0
2018-09-03T02:14:13.503Z,0
2018-09-03T02:15:14.059Z,0
2018-09-03T02:16:14.608Z,0
2018-09-03T02:17:15.161Z,0
2018-09-03T02:18:15.718Z,0
2018-09-03T02:19:16.275Z,0
2018-09-03T02:20:16.837Z,0
2018-09-03T02:21:17.385Z,0
2018-09-03T02:22:17.940Z,0
2018-09-03T02:23:18.492Z,0
2018-09-03T02:24:19.043Z,0
2018-09-03T02:25:19.596Z,0
2018-09-03T02:26:20.151Z,0
2018-09-03T02:27:20.701Z,0
2018-09-03T02:28:21.254Z,0
2018-09-03T02:29:21.799Z,0
2018-09-03T02:30:22.353Z,0
2018-09-03T02:31:22.905Z,0
2018-09-03T02:32:23.458Z,0
2018-09-03T02:33:24.004Z,0
2018-09-03T02:34:24.557Z,0
2018-09-03T02:35:25.111Z,0
2018-09-03T02:36:25.668Z,0
2018-09-03T02:37:26.227Z,0
2018-09-03T02:38:26.773Z,0
2018-09-03T02:39:27.329Z,0
2018-09-03T02:40:27.877Z,0
2018-09-03T02:41:28.431Z,0
2018-09-03T02:42:28.986Z,0
2018-09-03T02:43:29.538Z,0
2018-09-03T02:44:30.083Z,0
2018-09-03T02:45:30.639Z,0
2018-09-03T02:46:31.190Z,0
2018-09-03T02:47:31.745Z,0
2018-09-03T02:48:32.302Z,0
2018-09-03T02:49:32.848Z,0
2018-09-03T02:50:33.402Z,0
2018-09-03T02:51:33.954Z,0
2018-09-03T02:52:34.508Z,0
2018-09-03T02:53:35.063Z,0
2018-09-03T02:54:35.620Z,0
2018-09-03T02:55:36.175Z,0
2018-09-03T02:56:36.727Z,0
2018-09-03T02:57:37.278Z,0
2018-09-03T02:58:37.825Z,0
2018-09-03T02:59:38.382Z,0
2018-09-03T03:00:38.935Z,0
2018-09-03T03:01:39.482Z,0
2018-09-03T03:02:40.035Z,0
2018-09-03T03:03:40.595Z,0
2018-09-03T03:04:41.147Z,0
2018-09-03T03:05:41.697Z,0
2018-09-03T03:06:42.253Z,0
2018-09-03T03:07:42.805Z,0
2018-09-03T03:08:43.358Z,0
2018-09-03T03:09:43.912Z,0
2018-09-03T03:10:44.465Z,0
2018-09-03T03:11:45.065Z,0
2018-09-03T03:12:45.572Z,0
2018-09-03T03:13:46.126Z,0
2018-09-03T03:14:46.681Z,0
2018-09-03T03:15:47.231Z,0
2018-09-03T03:16:47.789Z,0
2018-09-03T03:17:48.340Z,0
2018-09-03T03:18:48.885Z,0
2018-09-03T03:19:49.436Z,0
2018-09-03T03:20:49.993Z,0
2018-09-03T03:21:50.548Z,0
2018-09-03T03:22:51.101Z,0
2018-09-03T03:23:51.654Z,0
2018-09-03T03:24:52.210Z,0
2018-09-03T03:25:52.769Z,0
2018-09-03T03:26:53.319Z,0
2018-09-03T03:27:53.869Z,0
2018-09-03T03:28:54.423Z,0
2018-09-03T03:29:54.978Z,0
2018-09-03T03:30:55.533Z,0
2018-09-03T03:31:56.089Z,0
2018-09-03T03:32:56.645Z,0
2018-09-03T03:33:57.192Z,0
2018-09-03T03:34:57.743Z,0
2018-09-03T03:35:58.289Z,0
2018-09-03T03:36:58.846Z,0
2018-09-03T03:37:59.403Z,0
2018-09-03T03:38:59.954Z,0
2018-09-03T03:40:00.498Z,0
2018-09-03T03:41:01.052Z,0
2018-09-03T03:42:01.604Z,0
2018-09-03T03:43:02.149Z,0
2018-09-03T03:44:02.704Z,0
2018-09-03T03:45:03.263Z,0
2018-09-03T03:46:03.824Z,0
2018-09-03T03:47:04.363Z,0
2018-09-03T03:48:04.912Z,0
2018-09-03T03:49:05.469Z,0
2018-09-03T03:50:06.015Z,0
2018-09-03T03:51:06.571Z,0
2018-09-03T03:52:07.124Z,0
2018-09-03T03:53:07.677Z,0
2018-09-03T03:54:08.230Z,0
2018-09-03T03:55:08.861Z,0
2018-09-03T03:56:09.328Z,0
2018-09-03T03:57:09.882Z,0
2018-09-03T03:58:10.438Z,0
2018-09-03T03:59:10.985Z,0
2018-09-03T04:00:11.547Z,0
2018-09-03T04:01:12.088Z,0
2018-09-03T04:02:12.644Z,0
2018-09-03T04:03:13.201Z,0
2018-09-03T04:04:13.749Z,0
2018-09-03T04:05:14.307Z,0
2018-09-03T04:06:14.854Z,0
2018-09-03T04:07:15.407Z,0
2018-09-03T04:08:15.956Z,0
2018-09-03T04:09:16.510Z,0
2018-09-03T04:10:17.061Z,0
2018-09-03T04:11:17.616Z,0
2018-09-03T04:12:18.167Z,0
2018-09-03T04:13:18.722Z,0
2018-09-03T04:14:19.275Z,0
2018-09-03T04:15:19.829Z,0
2018-09-03T04:16:20.382Z,0
2018-09-03T04:17:20.934Z,0
2018-09-03T04:18:21.483Z,0
2018-09-03T04:19:22.037Z,0
2018-09-03T04:20:22.593Z,4
2018-09-03T04:21:23.149Z,4
2018-09-03T04:22:23.693Z,4
2018-09-03T04:23:24.361Z,4
2018-09-03T04:24:24.796Z,4
2018-09-03T04:25:25.348Z,0
2018-09-03T04:26:25.904Z,4
2018-09-03T04:27:26.457Z,4
2018-09-03T04:28:27.013Z,8
2018-09-03T04:29:27.566Z,4
2018-09-03T04:30:28.117Z,8
2018-09-03T04:31:28.667Z,8
2018-09-03T04:32:29.224Z,12
2018-09-03T04:33:29.776Z,12
2018-09-03T04:34:30.332Z,16
2018-09-03T04:35:30.887Z,16
2018-09-03T04:36:31.445Z,20
2018-09-03T04:37:31.997Z,20
2018-09-03T04:38:32.602Z,24
2018-09-03T04:39:33.102Z,32
2018-09-03T04:40:33.652Z,36
2018-09-03T04:41:34.209Z,40
2018-09-03T04:42:34.766Z,48
2018-09-03T04:43:35.321Z,56
2018-09-03T04:44:35.873Z,64
2018-09-03T04:45:36.433Z,76
2018-09-03T04:46:36.989Z,88
2018-09-03T04:47:37.568Z,100
2018-09-03T04:48:38.104Z,112
2018-09-03T04:49:38.658Z,120
2018-09-03T04:50:39.213Z,132
2018-09-03T04:51:39.770Z,144
2018-09-03T04:52:40.323Z,160
2018-09-03T04:53:40.880Z,168
2018-09-03T04:54:41.448Z,180
2018-09-03T04:55:41.981Z,192
2018-09-03T04:56:42.538Z,200
2018-09-03T04:57:43.095Z,216
2018-09-03T04:58:43.658Z,232
2018-09-03T04:59:44.209Z,244
2018-09-03T05:00:44.764Z,260
2018-09-03T05:01:45.391Z,264
2018-09-03T05:02:45.879Z,268
2018-09-03T05:03:46.434Z,276
2018-09-03T05:04:47.000Z,292
2018-09-03T05:05:47.660Z,308
2018-09-03T05:06:48.108Z,328
2018-09-03T05:07:48.659Z,356
2018-09-03T05:08:49.217Z,372
2018-09-03T05:09:49.776Z,376
2018-09-03T05:10:50.407Z,376
2018-09-03T05:11:51.046Z,368
2018-09-03T05:12:51.565Z,368
2018-09-03T05:13:52.115Z,372
2018-09-03T05:14:52.678Z,388
2018-09-03T05:15:53.231Z,408
2018-09-03T05:16:53.789Z,428
2018-09-03T05:17:54.349Z,460
2018-09-03T05:18:54.898Z,496
2018-09-03T05:19:55.454Z,556
2018-09-03T05:20:56.013Z,628
2018-09-03T05:21:56.569Z,704
2018-09-03T05:22:57.129Z,768
2018-09-03T05:23:57.682Z,824
2018-09-03T05:24:58.240Z,884
2018-09-03T05:25:58.810Z,948
2018-09-03T05:26:59.369Z,1004
2018-09-03T05:27:59.929Z,1040
2018-09-03T05:29:00.490Z,1060
2018-09-03T05:30:01.047Z,1084
2018-09-03T05:31:01.660Z,1172
2018-09-03T05:32:02.163Z,1336
2018-09-03T05:33:02.721Z,1532
2018-09-03T05:34:03.272Z,1724
2018-09-03T05:35:03.837Z,1892
2018-09-03T05:36:04.400Z,1980
2018-09-03T05:37:04.957Z,2016
2018-09-03T05:38:05.514Z,2132
2018-09-03T05:39:06.066Z,2308
2018-09-03T05:40:06.620Z,2400
2018-09-03T05:41:07.182Z,2328
2018-09-03T05:42:07.743Z,2188
2018-09-03T05:43:08.421Z,2064
2018-09-03T05:44:09.063Z,2008
2018-09-03T05:45:09.626Z,2040
2018-09-03T05:46:10.183Z,2088
2018-09-03T05:47:10.744Z,2088
2018-09-03T05:48:11.301Z,2112
2018-09-03T05:49:11.858Z,2224
2018-09-03T05:50:12.498Z,2416
2018-09-03T05:51:12.971Z,2656
2018-09-03T05:52:13.529Z,2936
2018-09-03T05:53:14.087Z,3248
2018-09-03T05:54:14.647Z,3564
2018-09-03T05:55:15.207Z,3708
2018-09-03T05:56:15.775Z,3616
2018-09-03T05:57:16.335Z,3440
2018-09-03T05:58:16.900Z,3360
2018-09-03T05:59:17.602Z,3448
2018-09-03T06:00:18.107Z,3676
2018-09-03T06:01:18.661Z,3948
2018-09-03T06:02:19.221Z,4136
2018-09-03T06:03:19.780Z,4248
2018-09-03T06:04:20.358Z,4312
2018-09-03T06:05:20.912Z,4344
2018-09-03T06:06:21.477Z,4412
2018-09-03T06:07:22.036Z,4528
2018-09-03T06:08:22.591Z,4668
2018-09-03T06:09:23.145Z,4808
2018-09-03T06:10:23.714Z,4984
2018-09-03T06:11:24.269Z,5132
2018-09-03T06:12:24.829Z,5228
2018-09-03T06:13:25.409Z,5356
2018-09-03T06:14:25.960Z,5568
2018-09-03T06:15:26.516Z,5848
2018-09-03T06:16:27.075Z,6164
2018-09-03T06:17:27.635Z,6352
2018-09-03T06:18:28.197Z,6380
2018-09-03T06:19:28.762Z,6268
2018-09-03T06:20:30.315Z,6148
2018-09-03T06:21:30.889Z,6232
2018-09-03T06:22:31.447Z,6520
2018-09-03T06:23:32.001Z,6784
2018-09-03T06:24:32.561Z,6828
2018-09-03T06:25:33.122Z,6700
2018-09-03T06:26:33.698Z,6524
2018-09-03T06:27:34.244Z,6440
2018-09-03T06:28:34.803Z,6488
2018-09-03T06:29:35.366Z,6560
2018-09-03T06:30:35.971Z,6716
2018-09-03T06:31:36.527Z,7032
2018-09-03T06:32:37.090Z,7524
2018-09-03T06:33:37.649Z,8004
2018-09-03T06:34:38.209Z,8188
2018-09-03T06:35:38.764Z,8180
2018-09-03T06:36:39.336Z,8052
2018-09-03T06:37:39.894Z,7796
2018-09-03T06:38:40.463Z,7704
2018-09-03T06:39:41.042Z,8120
2018-09-03T06:40:41.577Z,9012
2018-09-03T06:41:42.135Z,9784
2018-09-03T06:42:42.701Z,10148
2018-09-03T06:43:43.263Z,10120
2018-09-03T06:44:43.821Z,9848
2018-09-03T06:45:44.387Z,9652
2018-09-03T06:46:44.942Z,9728
2018-09-03T06:47:45.501Z,9864
2018-09-03T06:48:46.059Z,9868
2018-09-03T06:49:46.621Z,9676
2018-09-03T06:50:47.182Z,9248
2018-09-03T06:51:47.743Z,8656
2018-09-03T06:52:48.656Z,8224
2018-09-03T06:53:49.172Z,8068
2018-09-03T06:54:49.721Z,8028
2018-09-03T06:55:50.293Z,8064
2018-09-03T06:56:50.855Z,8156
2018-09-03T06:57:51.407Z,8240
2018-09-03T06:58:51.973Z,8444
2018-09-03T06:59:52.533Z,8880
2018-09-03T07:00:53.093Z,9444
2018-09-03T07:01:53.650Z,9884
2018-09-03T07:02:54.205Z,10256
2018-09-03T07:03:54.768Z,10728
2018-09-03T07:04:55.322Z,11324
2018-09-03T07:05:55.885Z,11888
2018-09-03T07:06:56.494Z,12248
2018-09-03T07:07:57.008Z,12256
2018-09-03T07:08:57.571Z,12172
2018-09-03T07:09:58.162Z,12292
2018-09-03T07:10:58.721Z,12828
2018-09-03T07:11:59.284Z,13888
2018-09-03T07:12:59.846Z,14996
2018-09-03T07:14:00.413Z,16016
2018-09-03T07:15:00.978Z,16956
2018-09-03T07:16:01.544Z,17552
2018-09-03T07:17:02.112Z,17800
2018-09-03T07:18:02.672Z,17664
2018-09-03T07:19:03.229Z,17364
2018-09-03T07:20:03.787Z,17064
2018-09-03T07:21:04.357Z,16864
2018-09-03T07:22:04.918Z,16944
2018-09-03T07:23:05.488Z,17472
2018-09-03T07:24:06.243Z,18020
2018-09-03T07:25:06.807Z,18236
2018-09-03T07:26:07.367Z,17848
2018-09-03T07:27:07.926Z,17036
2018-09-03T07:28:08.489Z,16108
2018-09-03T07:29:09.047Z,15344
2018-09-03T07:30:09.610Z,14888
2018-09-03T07:31:10.176Z,14844
2018-09-03T07:32:10.741Z,14976
2018-09-03T07:33:11.308Z,15012
2018-09-03T07:34:11.868Z,14808
2018-09-03T07:35:12.491Z,14552
2018-09-03T07:36:12.987Z,14524
2018-09-03T07:37:13.555Z,14604
2018-09-03T07:38:14.128Z,14648
2018-09-03T07:39:14.692Z,14628
2018-09-03T07:40:15.248Z,14612
2018-09-03T07:41:15.812Z,14540
2018-09-03T07:42:16.375Z,14164
2018-09-03T07:43:16.934Z,13668
2018-09-03T07:44:17.533Z,13356
2018-09-03T07:45:18.062Z,13404
2018-09-03T07:46:18.631Z,13776
2018-09-03T07:47:19.195Z,14244
2018-09-03T07:48:19.759Z,14572
2018-09-03T07:49:20.372Z,14804
2018-09-03T07:50:20.933Z,15008
2018-09-03T07:51:21.500Z,15236
2018-09-03T07:52:22.068Z,15908
2018-09-03T07:53:22.629Z,16952
2018-09-03T07:54:23.195Z,17920
2018-09-03T07:55:23.763Z,20512
2018-09-03T07:56:24.325Z,20704
2018-09-03T07:57:24.893Z,21376
2018-09-03T07:58:25.459Z,22176
2018-09-03T07:59:26.028Z,23296
2018-09-03T08:00:26.613Z,23840
2018-09-03T08:01:27.223Z,23936
2018-09-03T08:02:27.788Z,23360
2018-09-03T08:03:28.407Z,22688
2018-09-03T08:04:28.964Z,22368
2018-09-03T08:05:29.527Z,22464
2018-09-03T08:06:30.092Z,22176
2018-09-03T08:07:30.727Z,21504
2018-09-03T08:08:31.214Z,20928
2018-09-03T08:09:31.776Z,20800
2018-09-03T08:10:32.336Z,20672
2018-09-03T08:11:32.929Z,20320
2018-09-03T08:12:33.464Z,19904
2018-09-03T08:13:34.028Z,19616
2018-09-03T08:14:34.597Z,19392
2018-09-03T08:15:35.171Z,19200
2018-09-03T08:16:35.725Z,18220
2018-09-03T08:17:36.289Z,16332
2018-09-03T08:18:36.857Z,13996
2018-09-03T08:19:37.437Z,11968
2018-09-03T08:20:37.985Z,10520
2018-09-03T08:21:38.547Z,9452
2018-09-03T08:22:39.120Z,8836
2018-09-03T08:23:39.683Z,8788
2018-09-03T08:24:40.244Z,8972
2018-09-03T08:25:40.802Z,9084
2018-09-03T08:26:41.363Z,9052
2018-09-03T08:27:41.936Z,8932
2018-09-03T08:28:42.493Z,8844
2018-09-03T08:29:43.060Z,9084
2018-09-03T08:30:43.621Z,9620
2018-09-03T08:31:44.183Z,10248
2018-09-03T08:32:44.758Z,10572
2018-09-03T08:33:45.326Z,10672
2018-09-03T08:34:45.889Z,10684
2018-09-03T08:35:46.498Z,10576
2018-09-03T08:36:47.018Z,10396
2018-09-03T08:37:47.576Z,10272
2018-09-03T08:38:48.131Z,10220
2018-09-03T08:39:48.749Z,10220
2018-09-03T08:40:49.247Z,10456
2018-09-03T08:41:49.853Z,10696
2018-09-03T08:42:50.424Z,10664
2018-09-03T08:43:50.984Z,10368
2018-09-03T08:44:51.587Z,9908
2018-09-03T08:45:52.108Z,9404
2018-09-03T08:46:52.665Z,9320
2018-09-03T08:47:53.228Z,9992
2018-09-03T08:48:53.784Z,11300
2018-09-03T08:49:54.349Z,12928
2018-09-03T08:50:54.918Z,14960
2018-09-03T08:51:55.480Z,17660
2018-09-03T08:52:56.040Z,20672
2018-09-03T08:53:56.601Z,22848
2018-09-03T08:54:57.167Z,24896
2018-09-03T08:55:57.731Z,27776
2018-09-03T08:56:58.296Z,31904
2018-09-03T08:57:58.910Z,34048
2018-09-03T08:58:59.489Z,34432
2018-09-03T09:00:00.046Z,33152
2018-09-03T09:01:00.610Z,34528
2018-09-03T09:02:01.178Z,38912
2018-09-03T09:03:01.747Z,37120
2018-09-03T09:04:02.312Z,37504
2018-09-03T09:05:02.878Z,39616
2018-09-03T09:06:03.460Z,54976
2018-09-03T09:07:04.026Z,58592
2018-09-03T09:08:04.592Z,45504
2018-09-03T09:09:05.166Z,66336
2018-09-03T09:10:05.735Z,62176
2018-09-03T09:11:06.304Z,76288
2018-09-03T09:12:06.866Z,83648
2018-09-03T09:13:07.434Z,73632
2018-09-03T09:14:07.998Z,77536
2018-09-03T09:15:08.568Z,83392
2018-09-03T09:16:09.169Z,56160
2018-09-03T09:17:09.732Z,53984
2018-09-03T09:18:10.308Z,45984
2018-09-03T09:19:10.873Z,37120
2018-09-03T09:20:11.446Z,31392
2018-09-03T09:21:12.015Z,28768
2018-09-03T09:22:12.580Z,25760
2018-09-03T09:23:13.149Z,23264
2018-09-03T09:24:13.744Z,21664
2018-09-03T09:25:14.294Z,20576
2018-09-03T09:26:14.870Z,19616
2018-09-03T09:27:15.463Z,18548
2018-09-03T09:28:16.210Z,17692
2018-09-03T09:29:16.776Z,16564
2018-09-03T09:30:17.339Z,15644
2018-09-03T09:31:17.915Z,16044
2018-09-03T09:32:18.476Z,17552
2018-09-03T09:33:19.117Z,18708
2018-09-03T09:34:19.679Z,18176
2018-09-03T09:35:20.245Z,16124
2018-09-03T09:36:20.813Z,13844
2018-09-03T09:37:21.382Z,11936
2018-09-03T09:38:21.948Z,10564
2018-09-03T09:39:22.510Z,9744
2018-09-03T09:40:23.079Z,9332
2018-09-03T09:41:23.644Z,8836
2018-09-03T09:42:24.213Z,8108
2018-09-03T09:43:24.778Z,7504
2018-09-03T09:44:25.347Z,7312
2018-09-03T09:45:25.914Z,7412
2018-09-03T09:46:26.477Z,7424
2018-09-03T09:47:27.045Z,7216
2018-09-03T09:48:27.604Z,7096
2018-09-03T09:49:28.167Z,7240
2018-09-03T09:50:28.727Z,7536
2018-09-03T09:51:29.288Z,7780
2018-09-03T09:52:29.855Z,7852
2018-09-03T09:53:30.429Z,7808
2018-09-03T09:54:30.981Z,7980
2018-09-03T09:55:31.545Z,8340
2018-09-03T09:56:32.110Z,8760
2018-09-03T09:57:32.677Z,9192
2018-09-03T09:58:33.237Z,9564
2018-09-03T09:59:33.795Z,9872
2018-09-03T10:00:34.352Z,10608
2018-09-03T10:01:34.921Z,12040
2018-09-03T10:02:35.499Z,13876
2018-09-03T10:03:36.060Z,15696
2018-09-03T10:04:36.630Z,16924
2018-09-03T10:05:37.189Z,17184
2018-09-03T10:06:37.757Z,16604
2018-09-03T10:07:38.320Z,16040
2018-09-03T10:08:38.884Z,16148
2018-09-03T10:09:39.479Z,16908
2018-09-03T10:10:40.050Z,17464
2018-09-03T10:11:40.588Z,17244
2018-09-03T10:12:41.159Z,16688
2018-09-03T10:13:41.718Z,16292
2018-09-03T10:14:42.277Z,16256
2018-09-03T10:15:42.844Z,16536
2018-09-03T10:16:43.412Z,17000
2018-09-03T10:17:43.984Z,18024
2018-09-03T10:18:44.552Z,19744
2018-09-03T10:19:45.116Z,21504
2018-09-03T10:20:45.685Z,24064
2018-09-03T10:21:46.322Z,27776
2018-09-03T10:22:46.799Z,33120
2018-09-03T10:23:47.363Z,39488
2018-09-03T10:24:47.937Z,42368
2018-09-03T10:25:48.503Z,41696
2018-09-03T10:26:49.077Z,45440
2018-09-03T10:27:49.637Z,60192
2018-09-03T10:28:50.206Z,78784
2018-09-03T10:29:50.876Z,66880
2018-09-03T10:30:51.463Z,65632
2018-09-03T10:31:52.061Z,65632
2018-09-03T10:32:52.604Z,88544
2018-09-03T10:33:53.179Z,59360
2018-09-03T10:34:54.739Z,52128
2018-09-03T10:35:55.308Z,38272
2018-09-03T10:36:55.879Z,31712
2018-09-03T10:37:56.447Z,27264
2018-09-03T10:38:57.017Z,24736
2018-09-03T10:39:57.588Z,23872
2018-09-03T10:40:58.154Z,23808
2018-09-03T10:41:58.727Z,24704
2018-09-03T10:42:59.322Z,25632
2018-09-03T10:43:59.864Z,26048
2018-09-03T10:45:00.423Z,25984
2018-09-03T10:46:00.989Z,25984
2018-09-03T10:47:01.567Z,26176
2018-09-03T10:48:02.108Z,25728
2018-09-03T10:49:02.679Z,23808
2018-09-03T10:50:03.246Z,21248
2018-09-03T10:51:03.811Z,19776
2018-09-03T10:52:04.377Z,19456
2018-09-03T10:53:04.949Z,18236
2018-09-03T10:54:05.519Z,15492
2018-09-03T10:55:06.085Z,13200
2018-09-03T10:56:06.763Z,12880
2018-09-03T10:57:07.314Z,13872
2018-09-03T10:58:07.955Z,14768
2018-09-03T10:59:08.519Z,14804
2018-09-03T11:00:09.085Z,14152
2018-09-03T11:01:09.643Z,13040
2018-09-03T11:02:10.214Z,11752
2018-09-03T11:03:10.782Z,10668
2018-09-03T11:04:11.342Z,9956
2018-09-03T11:05:11.902Z,9560
2018-09-03T11:06:12.506Z,9484
2018-09-03T11:07:13.073Z,9492
2018-09-03T11:08:13.639Z,9568
2018-09-03T11:09:14.207Z,9844
2018-09-03T11:10:14.769Z,10352
2018-09-03T11:11:15.399Z,11208
2018-09-03T11:12:15.897Z,12332
2018-09-03T11:13:16.475Z,13388
2018-09-03T11:14:17.101Z,14212
2018-09-03T11:15:17.602Z,14888
2018-09-03T11:16:18.173Z,15380
2018-09-03T11:17:18.759Z,15788
2018-09-03T11:18:19.328Z,16108
2018-09-03T11:19:19.899Z,16552
2018-09-03T11:20:20.458Z,16972
2018-09-03T11:21:21.184Z,17348
2018-09-03T11:22:21.653Z,17740
2018-09-03T11:23:22.208Z,18448
2018-09-03T11:24:22.767Z,19776
2018-09-03T11:25:23.340Z,20160
2018-09-03T11:26:23.904Z,21216
2018-09-03T11:27:24.466Z,20992
2018-09-03T11:28:25.047Z,20928
2018-09-03T11:29:25.594Z,20256
2018-09-03T11:30:26.163Z,18632
2018-09-03T11:31:26.739Z,16860
2018-09-03T11:32:27.316Z,15596
2018-09-03T11:33:27.872Z,15220
2018-09-03T11:34:28.443Z,15776
2018-09-03T11:35:29.013Z,17216
2018-09-03T11:36:29.573Z,19264
2018-09-03T11:37:30.140Z,20896
2018-09-03T11:38:30.710Z,22144
2018-09-03T11:39:31.281Z,23072
2018-09-03T11:40:31.850Z,24352
2018-09-03T11:41:32.413Z,26848
2018-09-03T11:42:32.972Z,30208
2018-09-03T11:43:33.532Z,33408
2018-09-03T11:44:34.099Z,34496
2018-09-03T11:45:34.662Z,31200
2018-09-03T11:46:35.227Z,26304
2018-09-03T11:47:35.790Z,24544
2018-09-03T11:48:36.366Z,24256
2018-09-03T11:49:36.946Z,24768
2018-09-03T11:50:37.517Z,26592
2018-09-03T11:51:38.096Z,30944
2018-09-03T11:52:38.657Z,35776
2018-09-03T11:53:39.224Z,36896
2018-09-03T11:54:39.799Z,36352
2018-09-03T11:55:40.370Z,36480
2018-09-03T11:56:40.931Z,32832
2018-09-03T11:57:41.500Z,31232
2018-09-03T11:58:42.064Z,30272
2018-09-03T11:59:42.639Z,26368
2018-09-03T12:00:43.196Z,22688
2018-09-03T12:01:43.764Z,20128
2018-09-03T12:02:44.326Z,18040
2018-09-03T12:03:44.888Z,18016
2018-09-03T12:04:45.457Z,19360
2018-09-03T12:05:46.023Z,20672
2018-09-03T12:06:46.702Z,22432
2018-09-03T12:07:47.264Z,25632
2018-09-03T12:08:47.799Z,27456
2018-09-03T12:09:48.370Z,30976
2018-09-03T12:10:48.935Z,35552
2018-09-03T12:11:49.522Z,38432
2018-09-03T12:12:50.104Z,37920
2018-09-03T12:13:50.675Z,35968
2018-09-03T12:14:51.235Z,32032
2018-09-03T12:15:51.858Z,30080
2018-09-03T12:16:52.417Z,30400
2018-09-03T12:17:52.981Z,31776
2018-09-03T12:18:53.615Z,32448
2018-09-03T12:19:54.172Z,33504
2018-09-03T12:20:54.821Z,34240
2018-09-03T12:21:55.348Z,35328
2018-09-03T12:22:55.908Z,33056
2018-09-03T12:23:56.475Z,32128
2018-09-03T12:24:57.052Z,32160
2018-09-03T12:25:57.641Z,31328
2018-09-03T12:26:58.202Z,31776
2018-09-03T12:27:58.773Z,31968
2018-09-03T12:28:59.339Z,31808
2018-09-03T12:29:59.906Z,32480
2018-09-03T12:31:00.467Z,34304
2018-09-03T12:33:16.489Z,38080
2018-09-03T12:34:17.063Z,37184
2018-09-03T12:35:17.634Z,33248
2018-09-03T12:36:18.191Z,27808
2018-09-03T12:37:18.755Z,23712
2018-09-03T12:38:19.325Z,21184
2018-09-03T12:39:19.886Z,20288
2018-09-03T12:40:20.458Z,20384
2018-09-03T12:41:21.016Z,20768
2018-09-03T12:42:22.176Z,21056
2018-09-03T12:43:22.754Z,21216
2018-09-03T12:44:23.319Z,21184
2018-09-03T12:45:23.885Z,21440
2018-09-03T12:46:24.514Z,21888
2018-09-03T12:47:25.019Z,22080
2018-09-03T12:48:25.599Z,21696
2018-09-03T12:49:26.180Z,20832
2018-09-03T12:50:26.749Z,19104
2018-09-03T12:51:27.310Z,17176
2018-09-03T12:52:27.892Z,15856
2018-09-03T12:53:28.450Z,15244
2018-09-03T12:54:29.014Z,14952
2018-09-03T12:55:29.583Z,14832
2018-09-03T12:56:30.148Z,14860
2018-09-03T12:57:30.711Z,15116
2018-09-03T12:58:31.274Z,15724
2018-09-03T12:59:31.846Z,16604
2018-09-03T13:00:38.673Z,17760
2018-09-03T13:01:32.974Z,19232
2018-09-03T13:02:39.417Z,20192
2018-09-03T13:03:34.101Z,20544
2018-09-03T13:04:34.698Z,20608
2018-09-03T13:05:35.232Z,20320
2018-09-03T13:06:35.796Z,19456
2018-09-03T13:07:36.360Z,18196
2018-09-03T13:08:36.933Z,17392
2018-09-03T13:09:37.488Z,16908
2018-09-03T13:10:38.063Z,16524
2018-09-03T13:11:38.622Z,16020
2018-09-03T13:12:39.220Z,15368
2018-09-03T13:13:39.749Z,15448
2018-09-03T13:14:40.319Z,15204
2018-09-03T13:15:40.884Z,14836
2018-09-03T13:16:41.440Z,15256
2018-09-03T13:17:42.017Z,16308
2018-09-03T13:18:42.632Z,17396
2018-09-03T13:19:43.150Z,19040
2018-09-03T13:20:43.716Z,20736
2018-09-03T13:21:44.492Z,22208
2018-09-03T13:22:45.043Z,23296
2018-09-03T13:23:45.622Z,25088
2018-09-03T13:24:46.252Z,27904
2018-09-03T13:25:46.753Z,30944
2018-09-03T13:26:47.320Z,31200
2018-09-03T13:27:47.905Z,29760
2018-09-03T13:28:48.452Z,29056
2018-09-03T13:29:49.021Z,29792
2018-09-03T13:30:49.679Z,31552
2018-09-03T13:31:50.149Z,31744
2018-09-03T13:32:50.752Z,30560
2018-09-03T13:33:51.307Z,28672
2018-09-03T13:34:51.868Z,24448
2018-09-03T13:35:52.479Z,20544
2018-09-03T13:36:53.001Z,17856
2018-09-03T13:37:53.569Z,17276
2018-09-03T13:38:54.133Z,17944
2018-09-03T13:39:54.697Z,18768
2018-09-03T13:40:55.262Z,19296
2018-09-03T13:41:55.870Z,19424
2018-09-03T13:42:56.389Z,18656
2018-09-03T13:43:56.962Z,18360
2018-09-03T13:44:57.523Z,19136
2018-09-03T13:45:58.089Z,20352